createdAt,value
2022-10-09T00:00:44.783Z,3.67
2022-10-09T00:03:31.550Z,1.93
2022-10-09T00:05:58.694Z,3.87
2022-10-09T00:08:25.247Z,6.77
2022-10-09T00:10:51.660Z,3.93
2022-10-09T00:13:18.242Z,5.23
2022-10-09T00:15:45.753Z,3.70
2022-10-09T00:18:13.612Z,5.40
2022-10-09T00:20:42.677Z,3.37
2022-10-09T00:23:10.121Z,4.27
2022-10-09T00:25:36.539Z,4.90
2022-10-09T00:28:04.356Z,5.63
2022-10-09T00:30:31.049Z,2.83
2022-10-09T00:32:57.271Z,4.10
2022-10-09T00:35:23.605Z,3.70
2022-10-09T00:37:49.756Z,4.57
2022-10-09T00:40:16.233Z,3.60
2022-10-09T00:42:44.773Z,3.67
2022-10-09T00:45:19.322Z,2.40
2022-10-09T00:47:52.777Z,4.20
2022-10-09T00:50:23.372Z,3.77
2022-10-09T00:52:54.099Z,3.60
2022-10-09T00:55:22.297Z,6.30
2022-10-09T00:57:50.079Z,4.23
2022-10-09T01:00:17.329Z,2.93
2022-10-09T01:02:43.682Z,3.47
2022-10-09T01:05:52.567Z,2.07
2022-10-09T01:08:31.317Z,5.40
2022-10-09T01:11:25.085Z,3.87
2022-10-09T01:14:15.599Z,4.53
2022-10-09T01:17:01.544Z,3.43
2022-10-09T01:19:56.128Z,2.63
2022-10-09T01:22:48.570Z,2.50
2022-10-09T01:25:22.330Z,3.77
2022-10-09T01:27:48.901Z,3.10
2022-10-09T01:30:15.263Z,1.73
2022-10-09T01:32:46.659Z,5.77
2022-10-09T01:35:14.624Z,6.80
2022-10-09T01:37:43.525Z,3.63
2022-10-09T01:40:11.996Z,2.37
2022-10-09T01:42:38.259Z,2.80
2022-10-09T01:45:05.035Z,3.07
2022-10-09T01:47:31.153Z,4.13
2022-10-09T01:50:06.277Z,6.10
2022-10-09T01:52:45.307Z,4.27
2022-10-09T01:55:31.082Z,4.80
2022-10-09T01:58:01.445Z,4.97
2022-10-09T02:00:30.053Z,5.77
2022-10-09T02:02:57.156Z,4.33
2022-10-09T02:05:27.333Z,7.37
2022-10-09T02:07:54.966Z,4.57
2022-10-09T02:10:22.880Z,6.03
2022-10-09T02:12:56.630Z,4.10
2022-10-09T02:15:30.195Z,5.23
2022-10-09T02:18:07.519Z,7.70
2022-10-09T02:20:38.812Z,3.43
2022-10-09T02:23:08.004Z,5.70
2022-10-09T02:25:35.251Z,3.30
2022-10-09T02:28:02.832Z,4.87
2022-10-09T02:30:37.994Z,5.17
2022-10-09T02:33:04.855Z,4.30
2022-10-09T02:35:31.779Z,2.90
2022-10-09T02:37:57.981Z,4.23
2022-10-09T02:40:24.055Z,4.70
2022-10-09T02:42:50.564Z,3.63
2022-10-09T02:45:16.947Z,3.57
2022-10-09T02:47:43.040Z,3.87
2022-10-09T02:50:09.429Z,4.10
2022-10-09T02:52:35.545Z,7.13
2022-10-09T02:55:01.696Z,5.10
2022-10-09T02:57:28.338Z,5.53
2022-10-09T02:59:54.455Z,3.10
2022-10-09T03:02:20.706Z,2.27
2022-10-09T03:04:47.181Z,2.93
2022-10-09T03:07:13.285Z,4.10
2022-10-09T03:09:39.488Z,4.20
2022-10-09T03:12:05.789Z,5.57
2022-10-09T03:14:31.921Z,5.43
2022-10-09T03:16:58.098Z,4.47
2022-10-09T03:19:24.363Z,5.27
2022-10-09T03:21:50.514Z,4.60
2022-10-09T03:24:16.621Z,9.57
2022-10-09T03:26:42.972Z,5.70
2022-10-09T03:29:09.089Z,3.07
2022-10-09T03:31:52.799Z,3.07
2022-10-09T03:34:20.032Z,5.97
2022-10-09T03:36:46.172Z,4.00
2022-10-09T03:39:12.372Z,3.97
2022-10-09T03:41:38.767Z,7.97
2022-10-09T03:44:04.895Z,4.03
2022-10-09T03:46:31.167Z,3.03
2022-10-09T03:48:57.522Z,3.73
2022-10-09T03:51:23.640Z,3.77
2022-10-09T03:53:49.754Z,4.43
2022-10-09T03:56:16.184Z,5.23
2022-10-09T03:58:42.429Z,8.20
2022-10-09T04:01:08.949Z,5.07
2022-10-09T04:03:35.579Z,3.97
2022-10-09T04:06:01.732Z,6.43
2022-10-09T04:08:28.065Z,4.20
2022-10-09T04:10:57.155Z,4.97
2022-10-09T04:13:23.802Z,7.43
2022-10-09T04:15:54.085Z,7.37
2022-10-09T04:18:20.743Z,4.03
2022-10-09T04:20:51.504Z,4.37
2022-10-09T04:23:23.602Z,6.50
2022-10-09T04:25:54.923Z,4.17
2022-10-09T04:28:22.703Z,3.07
2022-10-09T04:30:49.008Z,6.10
2022-10-09T04:33:15.702Z,7.03
2022-10-09T04:35:43.498Z,3.70
2022-10-09T04:38:10.281Z,3.10
2022-10-09T04:40:36.768Z,5.17
2022-10-09T04:43:03.473Z,3.57
2022-10-09T04:45:29.897Z,3.43
2022-10-09T04:47:56.257Z,4.27
2022-10-09T04:50:22.555Z,5.07
2022-10-09T04:52:58.111Z,3.93
2022-10-09T04:55:24.765Z,7.40
2022-10-09T04:57:51.154Z,4.50
2022-10-09T05:00:17.800Z,5.07
2022-10-09T05:02:44.165Z,4.37
2022-10-09T05:05:10.298Z,4.23
2022-10-09T05:07:37.805Z,7.27
2022-10-09T05:10:05.087Z,3.37
2022-10-09T05:12:31.317Z,4.70
2022-10-09T05:14:57.674Z,4.73
2022-10-09T05:17:23.977Z,4.10
2022-10-09T05:19:50.156Z,4.13
2022-10-09T05:22:16.671Z,5.57
2022-10-09T05:24:43.010Z,5.33
2022-10-09T05:27:09.279Z,4.73
2022-10-09T05:29:35.889Z,4.17
2022-10-09T05:32:02.304Z,4.33
2022-10-09T05:34:28.653Z,4.50
2022-10-09T05:36:55.088Z,2.60
2022-10-09T05:39:21.530Z,2.47
2022-10-09T05:41:47.785Z,4.67
2022-10-09T05:44:14.422Z,8.63
2022-10-09T05:46:40.602Z,4.80
2022-10-09T05:49:06.831Z,7.37
2022-10-09T05:51:36.064Z,8.63
2022-10-09T05:54:03.350Z,6.90
2022-10-09T05:56:35.076Z,6.33
2022-10-09T05:59:09.596Z,5.13
2022-10-09T06:01:38.825Z,4.93
2022-10-09T06:04:08.664Z,5.10
2022-10-09T06:06:37.703Z,6.33
2022-10-09T06:09:05.329Z,5.27
2022-10-09T06:11:34.804Z,7.47
2022-10-09T06:14:03.474Z,4.30
2022-10-09T06:16:33.064Z,3.23
2022-10-09T06:19:00.097Z,4.97
2022-10-09T06:21:27.860Z,5.83
2022-10-09T06:23:57.431Z,5.93
2022-10-09T06:26:25.280Z,4.27
2022-10-09T06:28:51.876Z,3.90
2022-10-09T06:31:21.253Z,3.03
2022-10-09T06:33:49.319Z,2.33
2022-10-09T06:36:21.039Z,6.03
2022-10-09T06:38:47.730Z,4.53
2022-10-09T06:41:17.019Z,5.83
2022-10-09T06:43:52.798Z,4.17
2022-10-09T06:46:20.951Z,4.93
2022-10-09T06:48:47.612Z,4.17
2022-10-09T06:51:16.119Z,6.47
2022-10-09T06:53:48.714Z,6.60
2022-10-09T06:56:16.378Z,5.37
2022-10-09T06:58:43.391Z,4.30
2022-10-09T07:01:18.933Z,5.00
2022-10-09T07:03:51.519Z,3.93
2022-10-09T07:06:23.347Z,5.17
2022-10-09T07:08:56.067Z,5.77
2022-10-09T07:11:24.732Z,4.20
2022-10-09T07:13:53.845Z,6.30
2022-10-09T07:16:23.227Z,10.50
2022-10-09T07:18:49.984Z,4.83
2022-10-09T07:21:16.782Z,5.03
2022-10-09T07:23:43.436Z,4.00
2022-10-09T07:26:19.088Z,6.20
2022-10-09T07:28:46.959Z,5.00
2022-10-09T07:31:14.210Z,3.57
2022-10-09T07:33:43.553Z,5.63
2022-10-09T07:36:10.690Z,3.77
2022-10-09T07:38:37.332Z,4.13
2022-10-09T07:41:06.928Z,6.50
2022-10-09T07:43:38.198Z,4.63
2022-10-09T07:46:06.934Z,4.63
2022-10-09T07:48:34.495Z,5.17
2022-10-09T07:51:28.366Z,3.97
2022-10-09T07:53:56.505Z,5.83
2022-10-09T07:56:25.217Z,4.37
2022-10-09T07:58:53.996Z,4.50
2022-10-09T08:01:21.952Z,5.03
2022-10-09T08:03:49.185Z,5.00
2022-10-09T08:06:17.648Z,4.73
2022-10-09T08:08:45.911Z,7.13
2022-10-09T08:11:14.644Z,8.23
2022-10-09T08:13:42.125Z,11.03
2022-10-09T08:16:09.525Z,6.60
2022-10-09T08:18:36.753Z,3.90
2022-10-09T08:21:08.378Z,6.37
2022-10-09T08:23:35.042Z,6.10
2022-10-09T08:26:01.806Z,4.97
2022-10-09T08:28:28.138Z,5.27
2022-10-09T08:30:54.632Z,7.53
2022-10-09T08:33:22.623Z,6.53
2022-10-09T08:35:49.389Z,6.37
2022-10-09T08:38:37.617Z,5.43
2022-10-09T08:41:11.083Z,7.07
2022-10-09T08:43:43.367Z,4.10
2022-10-09T08:46:20.733Z,6.80
2022-10-09T08:48:49.785Z,6.70
2022-10-09T08:51:26.084Z,5.63
2022-10-09T08:54:12.376Z,9.77
2022-10-09T08:56:38.540Z,8.37
2022-10-09T08:59:05.286Z,7.83
2022-10-09T09:01:46.797Z,5.87
2022-10-09T09:04:54.408Z,10.93
2022-10-09T09:07:51.444Z,7.23
2022-10-09T09:10:51.869Z,10.67
2022-10-09T09:13:35.322Z,6.67
2022-10-09T09:16:04.718Z,6.00
2022-10-09T09:18:45.551Z,5.57
2022-10-09T09:21:43.638Z,4.97
2022-10-09T09:24:33.150Z,11.27
2022-10-09T09:27:08.943Z,6.07
2022-10-09T09:29:46.113Z,3.43
2022-10-09T09:32:19.873Z,6.70
2022-10-09T09:34:46.610Z,7.03
2022-10-09T09:37:12.970Z,6.00
2022-10-09T09:40:34.958Z,4.50
2022-10-09T09:42:27.721Z,8.27
2022-10-09T09:45:02.507Z,5.30
2022-10-09T09:47:42.938Z,7.73
2022-10-09T09:50:23.418Z,7.83
2022-10-09T09:52:55.950Z,6.63
2022-10-09T09:55:30.773Z,5.47
2022-10-09T09:58:04.492Z,4.23
2022-10-09T10:00:32.574Z,9.07
2022-10-09T10:03:06.992Z,8.77
2022-10-09T10:05:36.859Z,6.73
2022-10-09T10:08:24.618Z,8.33
2022-10-09T10:10:56.884Z,5.40
2022-10-09T10:13:37.414Z,3.90
2022-10-09T10:16:06.602Z,5.00
2022-10-09T10:18:39.783Z,5.93
2022-10-09T10:21:15.389Z,3.60
2022-10-09T10:23:45.284Z,4.90
2022-10-09T10:26:23.772Z,4.07
2022-10-09T10:29:00.077Z,6.53
2022-10-09T10:32:10.217Z,6.07
2022-10-09T10:35:04.895Z,13.10
2022-10-09T10:38:09.329Z,7.47
2022-10-09T10:40:41.474Z,6.33
2022-10-09T10:43:10.533Z,5.47
2022-10-09T10:46:15.556Z,3.90
2022-10-09T10:48:47.551Z,5.60
2022-10-09T10:51:25.831Z,5.70
2022-10-09T10:54:09.246Z,4.43
2022-10-09T10:56:40.281Z,5.33
2022-10-09T10:59:31.285Z,3.53
2022-10-09T11:02:36.004Z,4.17
2022-10-09T11:05:41.234Z,3.70
2022-10-09T11:08:13.307Z,4.20
2022-10-09T11:10:58.742Z,4.23
2022-10-09T11:13:31.799Z,5.70
2022-10-09T11:16:16.597Z,3.40
2022-10-09T11:19:05.395Z,4.17
2022-10-09T11:21:41.148Z,3.10
2022-10-09T11:24:39.905Z,3.03
2022-10-09T11:27:09.633Z,3.87
2022-10-09T11:29:45.337Z,5.30
2022-10-09T11:32:19.705Z,3.37
2022-10-09T11:35:01.321Z,7.40
2022-10-09T11:37:38.451Z,4.53
2022-10-09T11:40:45.413Z,2.47
2022-10-09T11:43:26.737Z,5.93
2022-10-09T11:46:15.159Z,3.93
2022-10-09T11:49:18.286Z,5.30
2022-10-09T11:51:56.696Z,2.67
2022-10-09T11:54:26.800Z,3.70
2022-10-09T11:57:03.412Z,3.43
2022-10-09T11:59:35.705Z,2.60
2022-10-09T12:02:20.434Z,1.20
2022-10-09T12:04:55.186Z,3.53
2022-10-09T12:07:32.574Z,4.20
2022-10-09T12:10:04.253Z,2.43
2022-10-09T12:12:30.864Z,2.13
2022-10-09T12:14:57.767Z,4.63
2022-10-09T12:17:24.085Z,3.80
2022-10-09T12:20:01.311Z,4.53
2022-10-09T12:22:39.734Z,3.63
2022-10-09T12:25:27.300Z,1.80
2022-10-09T12:27:55.861Z,3.40
2022-10-09T12:30:28.409Z,5.63
2022-10-09T12:33:01.384Z,4.03
2022-10-09T12:35:32.506Z,3.23
2022-10-09T12:37:58.982Z,4.40
2022-10-09T12:40:29.114Z,7.17
2022-10-09T12:42:59.869Z,2.93
2022-10-09T12:45:29.952Z,3.07
2022-10-09T12:48:08.434Z,3.10
2022-10-09T12:50:35.535Z,3.47
2022-10-09T12:53:12.354Z,3.43
2022-10-09T12:55:47.865Z,4.53
2022-10-09T12:58:28.492Z,4.23
2022-10-09T13:01:04.380Z,7.60
2022-10-09T13:03:43.004Z,2.80
2022-10-09T13:06:20.240Z,6.37
2022-10-09T13:08:52.561Z,6.03
2022-10-09T13:11:42.660Z,4.63
2022-10-09T13:14:45.560Z,1.90
2022-10-09T13:17:24.526Z,3.03
2022-10-09T13:19:52.806Z,2.77
2022-10-09T13:22:24.878Z,3.03
2022-10-09T13:24:55.758Z,16.20
2022-10-09T13:27:40.906Z,5.13
2022-10-09T13:30:09.932Z,3.20
2022-10-09T13:32:36.627Z,3.17
2022-10-09T13:35:03.240Z,4.67
2022-10-09T13:37:29.729Z,2.57
2022-10-09T13:39:57.952Z,4.13
2022-10-09T13:42:27.451Z,3.73
2022-10-09T13:44:53.942Z,4.73
2022-10-09T13:47:24.500Z,1.77
2022-10-09T13:49:51.047Z,2.57
2022-10-09T13:52:17.475Z,2.30
2022-10-09T13:54:43.814Z,4.23
2022-10-09T13:57:10.049Z,3.93
2022-10-09T13:59:37.344Z,15.13
2022-10-09T14:02:03.705Z,120.73
2022-10-09T14:04:30.102Z,24.70
2022-10-09T14:06:56.312Z,7.90
2022-10-09T14:09:22.792Z,3.57
2022-10-09T14:11:49.301Z,3.97
2022-10-09T14:14:15.479Z,7.53
2022-10-09T14:16:42.104Z,3.77
2022-10-09T14:19:09.177Z,3.07
2022-10-09T14:21:40.416Z,3.87
2022-10-09T14:24:06.774Z,4.40
2022-10-09T14:26:33.747Z,6.37
2022-10-09T14:29:01.383Z,12.50
2022-10-09T14:31:29.185Z,3.40
2022-10-09T14:33:58.326Z,5.57
2022-10-09T14:36:25.088Z,7.23
2022-10-09T14:38:51.468Z,5.03
2022-10-09T14:41:21.084Z,4.50
2022-10-09T14:43:48.353Z,4.87
2022-10-09T14:46:16.734Z,2.87
2022-10-09T14:48:46.053Z,4.33
2022-10-09T14:51:15.440Z,2.03
2022-10-09T14:53:41.789Z,6.33
2022-10-09T14:56:11.150Z,2.23
2022-10-09T14:58:38.584Z,3.23
2022-10-09T15:01:05.482Z,4.23
2022-10-09T15:03:34.405Z,2.13
2022-10-09T15:06:05.721Z,2.93
2022-10-09T15:08:34.039Z,2.30
2022-10-09T15:11:00.290Z,3.33
2022-10-09T15:13:27.653Z,4.50
2022-10-09T15:16:01.478Z,3.20
2022-10-09T15:18:29.210Z,2.60
2022-10-09T15:20:57.155Z,2.53
2022-10-09T15:23:23.965Z,3.13
2022-10-09T15:25:52.033Z,3.00
2022-10-09T15:28:18.529Z,8.73
2022-10-09T15:30:46.368Z,6.33
2022-10-09T15:33:13.575Z,4.47
2022-10-09T15:35:39.969Z,5.30
2022-10-09T15:38:07.304Z,11.53
2022-10-09T15:40:46.601Z,17.03
2022-10-09T15:43:14.641Z,20.57
2022-10-09T15:45:41.554Z,24.17
2022-10-09T15:48:17.793Z,12.07
2022-10-09T15:50:45.931Z,15.13
2022-10-09T15:53:14.374Z,16.40
2022-10-09T15:55:43.066Z,43.00
2022-10-09T15:58:09.486Z,30.13
2022-10-09T16:00:37.618Z,17.83
2022-10-09T16:03:05.220Z,9.87
2022-10-09T16:05:39.850Z,10.27
2022-10-09T16:08:06.667Z,11.27
2022-10-09T16:10:33.334Z,7.07
2022-10-09T16:13:00.187Z,7.57
2022-10-09T16:15:27.077Z,13.87
2022-10-09T16:17:53.926Z,13.17
2022-10-09T16:20:20.232Z,11.93
2022-10-09T16:22:47.038Z,11.40
2022-10-09T16:25:15.235Z,17.13
2022-10-09T16:27:41.759Z,13.97
2022-10-09T16:30:11.382Z,26.17
2022-10-09T16:32:40.912Z,17.23
2022-10-09T16:35:07.633Z,14.07
2022-10-09T16:37:37.601Z,22.23
2022-10-09T16:40:04.517Z,20.60
2022-10-09T16:42:32.636Z,15.77
2022-10-09T16:45:00.037Z,28.47
2022-10-09T16:47:26.353Z,35.43
2022-10-09T16:49:53.757Z,171.80
2022-10-09T16:52:20.578Z,79.00
2022-10-09T16:54:47.977Z,29.33
2022-10-09T16:57:17.127Z,22.27
2022-10-09T16:59:45.024Z,68.37
2022-10-09T17:02:13.307Z,44.33
2022-10-09T17:04:40.507Z,139.87
2022-10-09T17:07:08.382Z,190.13
2022-10-09T17:09:36.788Z,137.67
2022-10-09T17:12:12.278Z,109.37
2022-10-09T17:14:39.747Z,109.53
2022-10-09T17:17:08.668Z,89.37
2022-10-09T17:19:36.082Z,70.77
2022-10-09T17:22:04.833Z,71.80
2022-10-09T17:24:32.074Z,36.53
2022-10-09T17:26:58.502Z,42.93
2022-10-09T17:29:25.441Z,21.93
2022-10-09T17:31:52.096Z,14.90
2022-10-09T17:34:18.881Z,17.27
2022-10-09T17:36:45.586Z,14.73
2022-10-09T17:39:15.027Z,52.00
2022-10-09T17:41:45.217Z,140.00
2022-10-09T17:44:13.752Z,48.90
2022-10-09T17:46:40.585Z,64.70
2022-10-09T17:49:07.203Z,60.40
2022-10-09T17:51:36.174Z,81.83
2022-10-09T17:54:09.507Z,32.27
2022-10-09T17:56:39.779Z,12.07
2022-10-09T17:59:06.588Z,55.83
2022-10-09T18:01:33.826Z,25.20
2022-10-09T18:04:00.369Z,73.70
2022-10-09T18:06:29.557Z,46.50
2022-10-09T18:08:57.413Z,76.50
2022-10-09T18:11:25.085Z,33.93
2022-10-09T18:13:52.182Z,49.23
2022-10-09T18:16:34.924Z,76.90
2022-10-09T18:19:07.088Z,70.80
2022-10-09T18:21:34.742Z,71.53
2022-10-09T18:24:01.197Z,103.17
2022-10-09T18:26:27.727Z,58.43
2022-10-09T18:28:54.556Z,63.50
2022-10-09T18:31:25.604Z,85.87
2022-10-09T18:33:52.833Z,56.70
2022-10-09T18:36:22.293Z,94.30
2022-10-09T18:38:51.348Z,175.60
2022-10-09T18:41:18.178Z,125.53
2022-10-09T18:43:45.918Z,116.87
2022-10-09T18:46:14.022Z,80.77
2022-10-09T18:48:40.770Z,77.37
2022-10-09T18:51:12.977Z,112.77
2022-10-09T18:53:41.675Z,114.90
2022-10-09T18:56:09.935Z,86.43
2022-10-09T18:58:38.332Z,79.67
2022-10-09T19:01:07.509Z,60.97
2022-10-09T19:03:35.936Z,64.50
2022-10-09T19:06:04.193Z,75.93
2022-10-09T19:08:30.550Z,67.97
2022-10-09T19:10:57.090Z,49.27
2022-10-09T19:13:24.543Z,45.70
2022-10-09T19:15:57.954Z,28.53
2022-10-09T19:18:25.935Z,27.43
2022-10-09T19:20:53.202Z,33.87
2022-10-09T19:23:19.673Z,25.73
2022-10-09T19:25:52.434Z,30.73
2022-10-09T19:28:20.081Z,24.17
2022-10-09T19:30:47.969Z,27.57
2022-10-09T19:33:15.738Z,20.80
2022-10-09T19:35:51.384Z,20.00
2022-10-09T19:38:18.739Z,24.63
2022-10-09T19:40:46.317Z,22.00
2022-10-09T19:43:13.768Z,46.30
2022-10-09T19:45:40.652Z,27.30
2022-10-09T19:48:07.624Z,26.27
2022-10-09T19:50:39.782Z,23.77
2022-10-09T19:53:06.178Z,27.50
2022-10-09T19:55:33.455Z,26.57
2022-10-09T19:58:01.154Z,25.33
2022-10-09T20:00:29.718Z,23.73
2022-10-09T20:02:56.594Z,24.20
2022-10-09T20:05:23.159Z,24.67
2022-10-09T20:07:50.344Z,23.83
2022-10-09T20:10:17.267Z,24.13
2022-10-09T20:12:45.075Z,20.47
2022-10-09T20:15:11.617Z,23.10
2022-10-09T20:17:38.208Z,25.93
2022-10-09T20:20:05.965Z,22.60
2022-10-09T20:22:32.480Z,20.83
2022-10-09T20:24:59.277Z,23.93
2022-10-09T20:27:25.647Z,22.93
2022-10-09T20:29:53.218Z,24.47
2022-10-09T20:32:19.790Z,24.67
2022-10-09T20:34:46.577Z,22.47
2022-10-09T20:37:13.270Z,23.03
2022-10-09T20:39:39.692Z,27.50
2022-10-09T20:42:07.021Z,21.30
2022-10-09T20:44:33.621Z,20.13
2022-10-09T20:47:00.954Z,21.47
2022-10-09T20:49:27.408Z,15.70
2022-10-09T20:51:54.638Z,19.17
2022-10-09T20:54:21.496Z,21.10
2022-10-09T20:56:48.909Z,17.43
2022-10-09T20:59:17.355Z,19.37
2022-10-09T21:01:44.232Z,18.47
2022-10-09T21:04:11.473Z,16.47
2022-10-09T21:06:38.030Z,16.43
2022-10-09T21:09:04.411Z,15.90
2022-10-09T21:11:38.173Z,9.93
2022-10-09T21:14:05.023Z,15.43
2022-10-09T21:16:31.143Z,10.40
2022-10-09T21:19:00.527Z,8.73
2022-10-09T21:21:29.676Z,15.77
2022-10-09T21:23:57.734Z,14.90
2022-10-09T21:26:24.734Z,12.60
2022-10-09T21:28:54.246Z,13.83
2022-10-09T21:31:28.185Z,14.53
2022-10-09T21:33:55.727Z,15.97
2022-10-09T21:36:33.582Z,15.40
2022-10-09T21:39:00.627Z,13.47
2022-10-09T21:41:26.909Z,13.40
2022-10-09T21:43:53.421Z,16.47
2022-10-09T21:46:19.575Z,19.60
2022-10-09T21:48:46.175Z,17.57
2022-10-09T21:51:12.374Z,13.43
2022-10-09T21:53:38.870Z,15.87
2022-10-09T21:56:05.935Z,15.63
2022-10-09T21:58:32.308Z,18.47
2022-10-09T22:01:00.771Z,16.03
2022-10-09T22:03:30.230Z,18.13
2022-10-09T22:05:56.593Z,16.73
2022-10-09T22:08:23.915Z,17.40
2022-10-09T22:10:50.910Z,17.33
2022-10-09T22:13:19.059Z,23.10
2022-10-09T22:15:50.129Z,20.10
2022-10-09T22:18:17.431Z,17.93
2022-10-09T22:20:46.938Z,19.40
2022-10-09T22:23:13.092Z,20.23
2022-10-09T22:25:39.764Z,18.07
2022-10-09T22:28:06.391Z,23.13
2022-10-09T22:30:33.271Z,22.83
2022-10-09T22:32:59.551Z,19.97
2022-10-09T22:35:26.465Z,23.20
2022-10-09T22:37:52.998Z,18.80
2022-10-09T22:40:19.833Z,18.00
2022-10-09T22:42:46.043Z,19.93
2022-10-09T22:45:12.397Z,21.13
2022-10-09T22:47:38.527Z,23.27
2022-10-09T22:50:04.846Z,20.07
2022-10-09T22:52:31.199Z,18.00
2022-10-09T22:54:57.301Z,18.63
2022-10-09T22:57:23.587Z,19.77
2022-10-09T22:59:49.722Z,18.80
2022-10-09T23:02:16.030Z,18.20
2022-10-09T23:04:42.398Z,19.20
2022-10-09T23:07:09.166Z,22.43
2022-10-09T23:09:35.301Z,19.47
2022-10-09T23:12:01.821Z,22.83
2022-10-09T23:14:28.372Z,34.73
2022-10-09T23:16:54.689Z,19.23
2022-10-09T23:19:20.806Z,22.70
2022-10-09T23:21:47.303Z,21.37
2022-10-09T23:24:16.715Z,20.00
2022-10-09T23:26:49.307Z,16.30
2022-10-09T23:29:17.863Z,22.57
2022-10-09T23:31:44.717Z,26.33
2022-10-09T23:34:11.090Z,26.03
2022-10-09T23:36:37.684Z,25.53
2022-10-09T23:39:04.887Z,19.73
2022-10-09T23:41:31.761Z,19.53
2022-10-09T23:43:57.904Z,18.63
2022-10-09T23:46:27.441Z,19.60
2022-10-09T23:48:54.550Z,16.07
2022-10-09T23:51:23.487Z,17.23
2022-10-09T23:53:50.225Z,16.73
2022-10-09T23:56:28.804Z,18.03
2022-10-09T23:58:56.238Z,22.40
